Grand Teton Natl Park, Wyoming
Current Conditions -  °F | °C
As of 3:51 PM on Monday 24 Nov 2014 (Local Time) from KJAC Reporting Station
Scattered Clouds Scattered Clouds  
Wind Chill: 18°   Ceiling: Unl
Heat Index: 28°   Visibility: 10mi
Dew Point: 14°   Wind: 12mph
Humidity: 55%   Direction: 220°SW
Pressure: 30.25"   Gusts: 16mph
Location:  43.72°N, 110.8°W
Report Text: KJAC 242251Z 22010G14KT 10SM SCT040 SCT050 M02/M10 A3025
Loading
Personal Weather Stations






























Interactive Weather Map New forecast layout! Learn more

10-Day Weather Forecast

Advertisements
Track Severe Weather on mobile